| time (UTC) | temp F | wind direction | speed MPH | gust MPH | rain 1hr in | rain 24hr in | rain mn in | humidity % | barometer mb |
| 20260831222727 | 100 | 152 | 8.0 | 13.0 | 0.00 | 0.00 | 0.00 | 32 | 1012.5 |
| 20260831222222 | 100 | 173 | 6.0 | 12.0 | 0.00 | 0.00 | 0.00 | 33 | 1012.5 |
| 20260831221718 | 100 | 152 | 8.0 | 13.0 | 0.00 | 0.00 | 0.00 | 34 | 1012.4 |
| 20260831221213 | 101 | 184 | 4.0 | 11.0 | 0.00 | 0.00 | 0.00 | 34 | 1012.5 |
| 20260831220708 | 100 | 137 | 8.0 | 11.0 | 0.00 | 0.00 | 0.00 | 34 | 1012.6 |
| 20260831220203 | 100 | 155 | 12.0 | 18.0 | 0.00 | 0.00 | 0.00 | 35 | 1012.6 |
| 20260831215658 | 100 | 153 | 10.0 | 15.0 | 0.00 | 0.00 | 0.00 | 35 | 1012.5 |
| 20260831215154 | 100 | 156 | 9.0 | 12.0 | 0.00 | 0.00 | 0.00 | 35 | 1012.7 |
| 20260831214651 | 100 | 146 | 10.0 | 15.0 | 0.00 | 0.00 | 0.00 | 35 | 1012.9 |
| 20260831214147 | 100 | 143 | 7.0 | 13.0 | 0.00 | 0.00 | 0.00 | 34 | 1012.6 |
| 20260831213637 | 100 | 160 | 6.0 | 14.0 | 0.00 | 0.00 | 0.00 | 35 | 1012.8 |
| 20260831213132 | 100 | 134 | 11.0 | 17.0 | 0.00 | 0.00 | 0.00 | 35 | 1012.8 |
| 20260831212628 | 101 | 167 | 8.0 | 17.0 | 0.00 | 0.00 | 0.00 | 35 | 1012.8 |
| 20260831212124 | 101 | 169 | 7.0 | 14.0 | 0.00 | 0.00 | 0.00 | 34 | 1013.1 |
| 20260831211623 | 101 | 124 | 11.0 | 14.0 | 0.00 | 0.00 | 0.00 | 35 | 1013.1 |
| 20260831211118 | 101 | 140 | 11.0 | 15.0 | 0.00 | 0.00 | 0.00 | 35 | 1013.1 |
| 20260831210613 | 101 | 146 | 9.0 | 17.0 | 0.00 | 0.00 | 0.00 | 35 | 1013.1 |
| 20260831210109 | 101 | 174 | 4.0 | 11.0 | 0.00 | 0.00 | 0.00 | 33 | 1013.1 |
| 20260831205608 | 101 | 137 | 19.0 | 21.0 | 0.00 | 0.00 | 0.00 | 33 | 1013.1 |
| 20260831205105 | 101 | 150 | 5.0 | 13.0 | 0.00 | 0.00 | 0.00 | 34 | 1013.2 |
| 20260831204559 | 102 | 175 | 6.0 | 12.0 | 0.00 | 0.00 | 0.00 | 31 | 1013.3 |
| 20260831204057 | 102 | 167 | 7.0 | 8.0 | 0.00 | 0.00 | 0.00 | 30 | 1013.4 |
| 20260831203552 | 103 | 160 | 6.0 | 15.0 | 0.00 | 0.00 | 0.00 | 30 | 1013.6 |
| 20260831203052 | 102 | 133 | 14.0 | 16.0 | 0.00 | 0.00 | 0.00 | 31 | 1013.6 |
| 20260831202550 | 102 | 92 | 4.0 | 9.0 | 0.00 | 0.00 | 0.00 | 32 | 1013.6 |
| 20260831202050 | 101 | 9 | 3.0 | 9.0 | 0.00 | 0.00 | 0.00 | 32 | 1014.0 |
| 20260831201549 | 101 | 208 | 4.0 | 11.0 | 0.00 | 0.00 | 0.00 | 33 | 1013.9 |
| 20260831201045 | 101 | 159 | 5.0 | 13.0 | 0.00 | 0.00 | 0.00 | 33 | 1013.8 |
| 20260831200540 | 101 | 150 | 6.0 | 11.0 | 0.00 | 0.00 | 0.00 | 35 | 1013.9 |
| 20260831200035 | 101 | 146 | 13.0 | 16.0 | 0.00 | 0.00 | 0.00 | 35 | 1014.0 |
| 20260831195530 | 101 | 123 | 7.0 | 21.0 | 0.00 | 0.00 | 0.00 | 35 | 1014.0 |
| 20260831195025 | 101 | 190 | 3.0 | 13.0 | 0.00 | 0.00 | 0.00 | 36 | 1014.1 |
| 20260831194521 | 100 | 157 | 8.0 | 11.0 | 0.00 | 0.00 | 0.00 | 36 | 1014.1 |
| 20260831194020 | 100 | 141 | 10.0 | 14.0 | 0.00 | 0.00 | 0.00 | 36 | 1014.1 |
| 20260831193515 | 102 | 154 | 8.0 | 14.0 | 0.00 | 0.00 | 0.00 | 35 | 1014.4 |
| 20260831193005 | 101 | 181 | 4.0 | 13.0 | 0.00 | 0.00 | 0.00 | 35 | 1014.4 |
| 20260831192459 | 100 | 195 | 2.0 | 11.0 | 0.00 | 0.00 | 0.00 | 35 | 1014.3 |
| 20260831191954 | 100 | 165 | 7.0 | 15.0 | 0.00 | 0.00 | 0.00 | 35 | 1014.4 |
| 20260831191450 | 100 | 138 | 3.0 | 9.0 | 0.00 | 0.00 | 0.00 | 34 | 1014.8 |
| 20260831190946 | 101 | 155 | 6.0 | 13.0 | 0.00 | 0.00 | 0.00 | 37 | 1014.7 |
| 20260831190441 | 100 | 133 | 3.0 | 6.0 | 0.00 | 0.00 | 0.00 | 36 | 1014.8 |
| 20260831185941 | 99 | 139 | 9.0 | 9.0 | 0.00 | 0.00 | 0.00 | 38 | 1014.6 |
| 20260831185437 | 100 | 147 | 8.0 | 11.0 | 0.00 | 0.00 | 0.00 | 36 | 1014.9 |
| 20260831184936 | 99 | 139 | 9.0 | 12.0 | 0.00 | 0.00 | 0.00 | 37 | 1015.0 |
| 20260831184431 | 100 | 152 | 8.0 | 15.0 | 0.00 | 0.00 | 0.00 | 36 | 1015.1 |
| 20260831183926 | 100 | 170 | 5.0 | 14.0 | 0.00 | 0.00 | 0.00 | 37 | 1015.0 |
| 20260831183425 | 99 | 170 | 5.0 | 6.0 | 0.00 | 0.00 | 0.00 | 38 | 1015.0 |
| 20260831182920 | 99 | 207 | 6.0 | 10.0 | 0.00 | 0.00 | 0.00 | 37 | 1015.0 |
| 20260831182415 | 98 | 163 | 5.0 | 11.0 | 0.00 | 0.00 | 0.00 | 41 | 1015.3 |
| 20260831181910 | 98 | 158 | 3.0 | 13.0 | 0.00 | 0.00 | 0.00 | 39 | 1015.3 |
| 20260831181406 | 99 | 153 | 9.0 | 12.0 | 0.00 | 0.00 | 0.00 | 38 | 1015.5 |
| 20260831180905 | 99 | 177 | 4.0 | 10.0 | 0.00 | 0.00 | 0.00 | 39 | 1015.4 |
| 20260831180400 | 98 | 193 | 4.0 | 13.0 | 0.00 | 0.00 | 0.00 | 41 | 1015.5 |
| 20260831175859 | 98 | 199 | 8.0 | 11.0 | 0.00 | 0.00 | 0.00 | 42 | 1015.6 |
| 20260831175355 | 97 | 179 | 7.0 | 13.0 | 0.00 | 0.00 | 0.00 | 42 | 1015.7 |
| 20260831174851 | 97 | 144 | 7.0 | 10.0 | 0.00 | 0.00 | 0.00 | 43 | 1015.7 |
| 20260831174346 | 98 | 138 | 9.0 | 12.0 | 0.00 | 0.00 | 0.00 | 41 | 1015.8 |
| 20260831173845 | 96 | 164 | 6.0 | 13.0 | 0.00 | 0.00 | 0.00 | 42 | 1015.8 |
| 20260831173340 | 96 | 149 | 7.0 | 11.0 | 0.00 | 0.00 | 0.00 | 44 | 1016.0 |
| 20260831172836 | 96 | 173 | 7.0 | 10.0 | 0.00 | 0.00 | 0.00 | 45 | 1015.9 |
| 20260831172331 | 96 | 176 | 6.0 | 9.0 | 0.00 | 0.00 | 0.00 | 46 | 1016.2 |
| 20260831171831 | 96 | 159 | 7.0 | 11.0 | 0.00 | 0.00 | 0.00 | 45 | 1016.1 |
| 20260831171327 | 96 | 129 | 10.0 | 12.0 | 0.00 | 0.00 | 0.00 | 44 | 1016.0 |
| 20260831170824 | 95 | 226 | 3.0 | 11.0 | 0.00 | 0.00 | 0.00 | 46 | 1016.2 |
| 20260831170320 | 95 | 169 | 6.0 | 17.0 | 0.00 | 0.00 | 0.00 | 48 | 1016.1 |
| 20260831165816 | 94 | 190 | 5.0 | 10.0 | 0.00 | 0.00 | 0.00 | 49 | 1016.3 |
| 20260831165312 | 94 | 149 | 5.0 | 13.0 | 0.00 | 0.00 | 0.00 | 50 | 1016.2 |
| 20260831164808 | 93 | 152 | 5.0 | 17.0 | 0.00 | 0.00 | 0.00 | 52 | 1016.1 |
| 20260831164304 | 94 | 170 | 7.0 | 10.0 | 0.00 | 0.00 | 0.00 | 51 | 1016.2 |
| 20260831163759 | 93 | 156 | 5.0 | 10.0 | 0.00 | 0.00 | 0.00 | 54 | 1016.2 |
| 20260831163255 | 92 | 166 | 6.0 | 9.0 | 0.00 | 0.00 | 0.00 | 54 | 1016.3 |
| 20260831162753 | 92 | 170 | 9.0 | 12.0 | 0.00 | 0.00 | 0.00 | 53 | 1016.2 |
| 20260831162248 | 93 | 167 | 7.0 | 10.0 | 0.00 | 0.00 | 0.00 | 54 | 1016.4 |
| 20260831161742 | 92 | 147 | 9.0 | 11.0 | 0.00 | 0.00 | 0.00 | 56 | 1016.3 |
| 20260831161238 | 92 | 149 | 15.0 | 15.0 | 0.00 | 0.00 | 0.00 | 56 | 1016.3 |
| 20260831160737 | 92 | 196 | 5.0 | 12.0 | 0.00 | 0.00 | 0.00 | 56 | 1016.3 |
| 20260831160227 | 92 | 181 | 4.0 | 9.0 | 0.00 | 0.00 | 0.00 | 57 | 1016.4 |
| 20260831155726 | 91 | 190 | 6.0 | 10.0 | 0.00 | 0.00 | 0.00 | 59 | 1016.4 |
| 20260831155222 | 90 | 164 | 7.0 | 10.0 | 0.00 | 0.00 | 0.00 | 60 | 1016.3 |
| 20260831154718 | 90 | 142 | 4.0 | 9.0 | 0.00 | 0.00 | 0.00 | 60 | 1016.4 |
| 20260831154214 | 91 | 165 | 5.0 | 11.0 | 0.00 | 0.00 | 0.00 | 60 | 1016.4 |
| 20260831153713 | 90 | 173 | 4.0 | 11.0 | 0.00 | 0.00 | 0.00 | 61 | 1016.4 |
| 20260831153208 | 90 | 229 | 5.0 | 9.0 | 0.00 | 0.00 | 0.00 | 62 | 1016.3 |
| 20260831152704 | 89 | 229 | 6.0 | 9.0 | 0.00 | 0.00 | 0.00 | 64 | 1016.5 |
| 20260831152200 | 89 | 173 | 5.0 | 8.0 | 0.00 | 0.00 | 0.00 | 65 | 1016.4 |
| 20260831151654 | 89 | 142 | 7.0 | 12.0 | 0.00 | 0.00 | 0.00 | 64 | 1016.5 |
| 20260831151148 | 89 | 152 | 8.0 | 10.0 | 0.00 | 0.00 | 0.00 | 65 | 1016.6 |
| 20260831150643 | 88 | 174 | 4.0 | 10.0 | 0.00 | 0.00 | 0.00 | 67 | 1016.3 |
| 20260831150139 | 87 | 139 | 9.0 | 12.0 | 0.00 | 0.00 | 0.00 | 68 | 1016.3 |
| 20260831145638 | 87 | 191 | 7.0 | 11.0 | 0.00 | 0.00 | 0.00 | 68 | 1016.5 |
| 20260831145135 | 86 | 176 | 7.0 | 11.0 | 0.00 | 0.00 | 0.00 | 71 | 1016.3 |
| 20260831144631 | 87 | 179 | 5.0 | 11.0 | 0.00 | 0.00 | 0.00 | 71 | 1016.5 |
| 20260831144126 | 87 | 162 | 9.0 | 14.0 | 0.00 | 0.00 | 0.00 | 72 | 1016.4 |
| 20260831143626 | 86 | 181 | 6.0 | 11.0 | 0.00 | 0.00 | 0.00 | 73 | 1016.3 |
| 20260831143121 | 86 | 152 | 4.0 | 10.0 | 0.00 | 0.00 | 0.00 | 74 | 1016.4 |
| 20260831142618 | 86 | 155 | 4.0 | 7.0 | 0.00 | 0.00 | 0.00 | 75 | 1016.4 |
| 20260831142113 | 85 | 154 | 5.0 | 10.0 | 0.00 | 0.00 | 0.00 | 76 | 1016.4 |
| 20260831141612 | 85 | 191 | 4.0 | 9.0 | 0.00 | 0.00 | 0.00 | 76 | 1016.4 |
| 20260831141107 | 85 | 195 | 5.0 | 10.0 | 0.00 | 0.00 | 0.00 | 77 | 1016.5 |
| 20260831140606 | 85 | 172 | 3.0 | 10.0 | 0.00 | 0.00 | 0.00 | 77 | 1016.3 |
| 20260831140101 | 84 | 192 | 4.0 | 9.0 | 0.00 | 0.00 | 0.00 | 78 | 1016.2 |
| 20260831135559 | 84 | 161 | 7.0 | 10.0 | 0.00 | 0.00 | 0.00 | 79 | 1016.2 |
| 20260831135055 | 84 | 164 | 4.0 | 10.0 | 0.00 | 0.00 | 0.00 | 80 | 1016.3 |
| 20260831134550 | 84 | 169 | 6.0 | 9.0 | 0.00 | 0.00 | 0.00 | 80 | 1016.1 |
| 20260831134045 | 83 | 152 | 4.0 | 9.0 | 0.00 | 0.00 | 0.00 | 81 | 1016.0 |
| 20260831133544 | 83 | 159 | 5.0 | 6.0 | 0.00 | 0.00 | 0.00 | 81 | 1016.1 |
| 20260831133039 | 83 | 140 | 3.0 | 6.0 | 0.00 | 0.00 | 0.00 | 82 | 1016.0 |
| 20260831132536 | 83 | 178 | 3.0 | 9.0 | 0.00 | 0.00 | 0.00 | 82 | 1016.0 |
| 20260831132034 | 82 | 158 | 2.0 | 5.0 | 0.00 | 0.00 | 0.00 | 83 | 1015.9 |
| 20260831131529 | 82 | 176 | 5.0 | 6.0 | 0.00 | 0.00 | 0.00 | 83 | 1015.9 |
| 20260831131025 | 82 | 153 | 6.0 | 7.0 | 0.00 | 0.00 | 0.00 | 84 | 1015.7 |
| 20260831130525 | 82 | 143 | 4.0 | 6.0 | 0.00 | 0.00 | 0.00 | 84 | 1015.7 |
| 20260831130021 | 82 | 170 | 2.0 | 6.0 | 0.00 | 0.00 | 0.00 | 84 | 1015.6 |
| 20260831125515 | 82 | 141 | 4.0 | 6.0 | 0.00 | 0.00 | 0.00 | 84 | 1015.4 |
| 20260831125010 | 82 | 160 | 3.0 | 6.0 | 0.00 | 0.00 | 0.00 | 84 | 1015.7 |
| 20260831124507 | 81 | 158 | 4.0 | 7.0 | 0.00 | 0.00 | 0.00 | 84 | 1015.6 |
| 20260831124002 | 81 | 145 | 2.0 | 6.0 | 0.00 | 0.00 | 0.00 | 84 | 1015.6 |
| 20260831123501 | 81 | 167 | 2.0 | 3.0 | 0.00 | 0.00 | 0.00 | 84 | 1015.6 |
| 20260831122955 | 81 | 169 | 3.0 | 4.0 | 0.00 | 0.00 | 0.00 | 84 | 1015.4 |
| 20260831122451 | 81 | 164 | 2.0 | 6.0 | 0.00 | 0.00 | 0.00 | 84 | 1015.2 |
| 20260831121946 | 81 | 178 | 2.0 | 4.0 | 0.00 | 0.00 | 0.00 | 84 | 1015.1 |
| 20260831121441 | 82 | 156 | 2.0 | 4.0 | 0.00 | 0.00 | 0.00 | 84 | 1015.0 |
| 20260831120937 | 82 | 162 | 3.0 | 6.0 | 0.00 | 0.00 | 0.00 | 84 | 1015.1 |
| 20260831120431 | 82 | 157 | 3.0 | 6.0 | 0.00 | 0.00 | 0.00 | 83 | 1014.9 |
| 20260831115931 | 82 | 159 | 6.0 | 6.0 | 0.00 | 0.00 | 0.00 | 83 | 1015.1 |
| 20260831115427 | 82 | 143 | 3.0 | 5.0 | 0.00 | 0.00 | 0.00 | 83 | 1015.1 |
| 20260831114922 | 82 | 132 | 5.0 | 5.0 | 0.00 | 0.00 | 0.00 | 83 | 1015.0 |
| 20260831114421 | 82 | 154 | 3.0 | 4.0 | 0.00 | 0.00 | 0.00 | 83 | 1015.0 |
| 20260831113917 | 82 | 156 | 4.0 | 5.0 | 0.00 | 0.00 | 0.00 | 83 | 1015.0 |
| 20260831113416 | 82 | 183 | 2.0 | 6.0 | 0.00 | 0.00 | 0.00 | 83 | 1014.9 |
| 20260831112911 | 82 | 150 | 4.0 | 6.0 | 0.00 | 0.00 | 0.00 | 83 | 1014.9 |
| 20260831112411 | 82 | 181 | 3.0 | 6.0 | 0.00 | 0.00 | 0.00 | 83 | 1015.1 |
| 20260831111906 | 82 | 201 | 2.0 | 5.0 | 0.00 | 0.00 | 0.00 | 83 | 1015.1 |
| 20260831111402 | 82 | 155 | 5.0 | 6.0 | 0.00 | 0.00 | 0.00 | 82 | 1014.9 |
| 20260831110858 | 82 | 169 | 2.0 | 6.0 | 0.00 | 0.00 | 0.00 | 82 | 1014.9 |
| 20260831110353 | 82 | 195 | 2.0 | 7.0 | 0.00 | 0.00 | 0.00 | 82 | 1015.0 |
| 20260831105851 | 82 | 203 | 4.0 | 8.0 | 0.00 | 0.00 | 0.00 | 82 | 1015.0 |
| 20260831105347 | 82 | 162 | 6.0 | 7.0 | 0.00 | 0.00 | 0.00 | 82 | 1015.0 |
| 20260831104842 | 82 | 137 | 2.0 | 4.0 | 0.00 | 0.00 | 0.00 | 82 | 1015.0 |
| 20260831104338 | 82 | 153 | 3.0 | 6.0 | 0.00 | 0.00 | 0.00 | 82 | 1015.0 |
| 20260831103838 | 82 | 207 | 3.0 | 6.0 | 0.00 | 0.00 | 0.00 | 82 | 1015.0 |
| 20260831103334 | 82 | 234 | 2.0 | 5.0 | 0.00 | 0.00 | 0.00 | 82 | 1015.0 |
| 20260831102829 | 82 | 205 | 2.0 | 4.0 | 0.00 | 0.00 | 0.00 | 82 | 1014.9 |
| 20260831102324 | 83 | 160 | 3.0 | 8.0 | 0.00 | 0.00 | 0.00 | 82 | 1014.7 |
| 20260831101819 | 83 | 155 | 4.0 | 4.0 | 0.00 | 0.00 | 0.00 | 82 | 1014.9 |
| 20260831101309 | 83 | 207 | 5.0 | 6.0 | 0.00 | 0.00 | 0.00 | 82 | 1014.8 |
| 20260831100805 | 83 | 177 | 4.0 | 6.0 | 0.00 | 0.00 | 0.00 | 82 | 1014.8 |
| 20260831100301 | 83 | 240 | 2.0 | 5.0 | 0.00 | 0.00 | 0.00 | 82 | 1014.9 |
| 20260831095800 | 83 | 169 | 5.0 | 7.0 | 0.00 | 0.00 | 0.00 | 82 | 1015.0 |
| 20260831095255 | 83 | 158 | 4.0 | 7.0 | 0.00 | 0.00 | 0.00 | 82 | 1015.0 |
| 20260831094755 | 83 | 159 | 5.0 | 8.0 | 0.00 | 0.00 | 0.00 | 82 | 1015.1 |
| 20260831094250 | 83 | 199 | 5.0 | 6.0 | 0.00 | 0.00 | 0.00 | 82 | 1015.0 |
| 20260831093746 | 83 | 178 | 3.0 | 6.0 | 0.00 | 0.00 | 0.00 | 81 | 1014.9 |
| 20260831093240 | 83 | 148 | 11.0 | 14.0 | 0.00 | 0.00 | 0.00 | 81 | 1014.9 |
| 20260831092737 | 83 | 182 | 5.0 | 9.0 | 0.00 | 0.00 | 0.00 | 81 | 1014.7 |
| 20260831092233 | 83 | 176 | 4.0 | 9.0 | 0.00 | 0.00 | 0.00 | 81 | 1014.8 |
| 20260831091732 | 83 | 187 | 3.0 | 6.0 | 0.00 | 0.00 | 0.00 | 81 | 1014.9 |
| 20260831091228 | 83 | 164 | 3.0 | 9.0 | 0.00 | 0.00 | 0.00 | 81 | 1014.8 |
| 20260831090723 | 83 | 158 | 6.0 | 10.0 | 0.00 | 0.00 | 0.00 | 81 | 1014.9 |
| 20260831090219 | 83 | 157 | 4.0 | 5.0 | 0.00 | 0.00 | 0.00 | 81 | 1014.9 |
| 20260831085714 | 84 | 157 | 5.0 | 8.0 | 0.00 | 0.00 | 0.00 | 81 | 1015.2 |
| 20260831085204 | 83 | 170 | 6.0 | 9.0 | 0.00 | 0.00 | 0.00 | 81 | 1015.0 |
| 20260831084659 | 84 | 164 | 3.0 | 6.0 | 0.00 | 0.00 | 0.00 | 80 | 1015.2 |
| 20260831084155 | 84 | 147 | 5.0 | 7.0 | 0.00 | 0.00 | 0.00 | 80 | 1015.0 |
| 20260831083651 | 84 | 172 | 3.0 | 10.0 | 0.00 | 0.00 | 0.00 | 80 | 1015.2 |
| 20260831083146 | 84 | 189 | 4.0 | 10.0 | 0.00 | 0.00 | 0.00 | 80 | 1015.0 |
| 20260831082644 | 84 | 195 | 6.0 | 11.0 | 0.00 | 0.00 | 0.00 | 80 | 1015.2 |
| 20260831082140 | 84 | 173 | 6.0 | 9.0 | 0.00 | 0.00 | 0.00 | 80 | 1015.0 |
| 20260831081636 | 84 | 171 | 6.0 | 9.0 | 0.00 | 0.00 | 0.00 | 79 | 1015.0 |
| 20260831081132 | 84 | 177 | 3.0 | 8.0 | 0.00 | 0.00 | 0.00 | 79 | 1015.0 |
| 20260831080627 | 84 | 161 | 6.0 | 8.0 | 0.00 | 0.00 | 0.00 | 79 | 1015.2 |
| 20260831080122 | 84 | 173 | 3.0 | 10.0 | 0.00 | 0.00 | 0.00 | 79 | 1015.4 |
| 20260831075618 | 84 | 187 | 7.0 | 9.0 | 0.00 | 0.00 | 0.00 | 79 | 1015.1 |
| 20260831075113 | 84 | 179 | 4.0 | 9.0 | 0.00 | 0.00 | 0.00 | 79 | 1015.3 |
| 20260831074612 | 84 | 177 | 3.0 | 9.0 | 0.00 | 0.00 | 0.00 | 80 | 1015.4 |
| 20260831074107 | 84 | 195 | 5.0 | 9.0 | 0.00 | 0.00 | 0.00 | 80 | 1015.5 |
| 20260831073602 | 84 | 166 | 8.0 | 8.0 | 0.00 | 0.00 | 0.00 | 80 | 1015.4 |
| 20260831073101 | 84 | 181 | 3.0 | 7.0 | 0.00 | 0.00 | 0.00 | 80 | 1015.6 |
| 20260831072556 | 84 | 177 | 4.0 | 8.0 | 0.00 | 0.00 | 0.00 | 79 | 1015.7 |
| 20260831072053 | 84 | 181 | 5.0 | 8.0 | 0.00 | 0.00 | 0.00 | 79 | 1015.7 |
| 20260831071551 | 84 | 147 | 8.0 | 8.0 | 0.00 | 0.00 | 0.00 | 79 | 1015.7 |
| 20260831071047 | 84 | 159 | 5.0 | 7.0 | 0.00 | 0.00 | 0.00 | 79 | 1015.8 |
| 20260831070546 | 84 | 183 | 3.0 | 5.0 | 0.00 | 0.00 | 0.00 | 79 | 1015.7 |
| 20260831070041 | 84 | 163 | 4.0 | 7.0 | 0.00 | 0.00 | 0.00 | 79 | 1016.0 |
| 20260831065538 | 84 | 181 | 4.0 | 8.0 | 0.00 | 0.00 | 0.00 | 78 | 1015.9 |
| 20260831065033 | 84 | 188 | 4.0 | 5.0 | 0.00 | 0.00 | 0.00 | 78 | 1016.0 |
| 20260831064528 | 84 | 178 | 6.0 | 9.0 | 0.00 | 0.00 | 0.00 | 78 | 1015.9 |
| 20260831064024 | 84 | 166 | 5.0 | 9.0 | 0.00 | 0.00 | 0.00 | 78 | 1016.1 |
| 20260831063519 | 84 | 139 | 6.0 | 9.0 | 0.00 | 0.00 | 0.00 | 78 | 1015.8 |
| 20260831063014 | 84 | 160 | 4.0 | 13.0 | 0.00 | 0.00 | 0.00 | 77 | 1015.7 |
| 20260831062509 | 84 | 146 | 9.0 | 9.0 | 0.00 | 0.00 | 0.00 | 77 | 1016.0 |
| 20260831062008 | 84 | 165 | 6.0 | 8.0 | 0.00 | 0.00 | 0.00 | 77 | 1016.1 |
| 20260831061506 | 84 | 142 | 13.0 | 15.0 | 0.00 | 0.00 | 0.00 | 77 | 1016.1 |
| 20260831061003 | 84 | 171 | 6.0 | 10.0 | 0.00 | 0.00 | 0.00 | 77 | 1016.1 |
| 20260831060502 | 84 | 183 | 4.0 | 6.0 | 0.00 | 0.00 | 0.00 | 77 | 1016.1 |
| 20260831055956 | 84 | 167 | 8.0 | 12.0 | 0.00 | 0.00 | 0.00 | 78 | 1016.0 |
| 20260831055452 | 84 | 163 | 7.0 | 9.0 | 0.00 | 0.00 | 0.00 | 78 | 1016.0 |
| 20260831054948 | 84 | 170 | 4.0 | 15.0 | 0.00 | 0.00 | 0.00 | 78 | 1016.1 |
| 20260831054447 | 85 | 143 | 9.0 | 11.0 | 0.00 | 0.00 | 0.00 | 78 | 1016.3 |
| 20260831053946 | 85 | 149 | 6.0 | 13.0 | 0.00 | 0.00 | 0.00 | 78 | 1016.1 |
| 20260831053444 | 84 | 155 | 4.0 | 11.0 | 0.00 | 0.00 | 0.00 | 78 | 1016.0 |
| 20260831052939 | 84 | 140 | 9.0 | 12.0 | 0.00 | 0.00 | 0.00 | 78 | 1016.0 |
| 20260831052434 | 85 | 142 | 9.0 | 12.0 | 0.00 | 0.00 | 0.00 | 78 | 1016.0 |
| 20260831051932 | 85 | 139 | 10.0 | 14.0 | 0.00 | 0.00 | 0.00 | 78 | 1016.0 |
| 20260831051431 | 84 | 166 | 7.0 | 11.0 | 0.00 | 0.00 | 0.00 | 78 | 1016.0 |
| 20260831050926 | 84 | 158 | 6.0 | 10.0 | 0.00 | 0.00 | 0.00 | 78 | 1016.0 |
| 20260831050425 | 85 | 158 | 5.0 | 12.0 | 0.00 | 0.00 | 0.00 | 78 | 1016.1 |
| 20260831045924 | 85 | 139 | 8.0 | 12.0 | 0.00 | 0.00 | 0.00 | 77 | 1016.1 |
| 20260831045423 | 85 | 151 | 5.0 | 9.0 | 0.00 | 0.00 | 0.00 | 77 | 1015.9 |
| 20260831044918 | 85 | 152 | 6.0 | 10.0 | 0.00 | 0.00 | 0.00 | 77 | 1016.1 |
| 20260831044414 | 85 | 165 | 5.0 | 12.0 | 0.00 | 0.00 | 0.00 | 77 | 1016.2 |
| 20260831043910 | 85 | 159 | 6.0 | 11.0 | 0.00 | 0.00 | 0.00 | 77 | 1016.1 |
| 20260831043409 | 85 | 171 | 6.0 | 17.0 | 0.00 | 0.00 | 0.00 | 77 | 1016.2 |
| 20260831042905 | 85 | 154 | 8.0 | 13.0 | 0.00 | 0.00 | 0.00 | 77 | 1016.3 |
| 20260831042404 | 85 | 154 | 8.0 | 12.0 | 0.00 | 0.00 | 0.00 | 76 | 1016.1 |
| 20260831041859 | 85 | 155 | 6.0 | 9.0 | 0.00 | 0.00 | 0.00 | 76 | 1016.2 |
| 20260831041358 | 85 | 142 | 8.0 | 13.0 | 0.00 | 0.00 | 0.00 | 76 | 1016.0 |
| 20260831040854 | 85 | 142 | 7.0 | 13.0 | 0.00 | 0.00 | 0.00 | 75 | 1016.0 |
| 20260831040348 | 85 | 149 | 10.0 | 13.0 | 0.00 | 0.00 | 0.00 | 75 | 1015.9 |
| 20260831035846 | 86 | 142 | 9.0 | 15.0 | 0.00 | 0.00 | 0.00 | 74 | 1015.7 |
| 20260831035345 | 86 | 131 | 6.0 | 13.0 | 0.00 | 0.00 | 0.00 | 73 | 1015.6 |
| 20260831034839 | 86 | 156 | 7.0 | 16.0 | 0.00 | 0.00 | 0.00 | 72 | 1015.5 |
| 20260831034335 | 86 | 174 | 5.0 | 12.0 | 0.00 | 0.00 | 0.00 | 71 | 1015.2 |
| 20260831033830 | 86 | 148 | 7.0 | 17.0 | 0.00 | 0.00 | 0.00 | 70 | 1015.1 |
| 20260831033330 | 86 | 157 | 4.0 | 11.0 | 0.00 | 0.00 | 0.00 | 70 | 1015.3 |
| 20260831032826 | 86 | 154 | 7.0 | 15.0 | 0.00 | 0.00 | 0.00 | 70 | 1015.2 |
| 20260831032320 | 86 | 158 | 8.0 | 12.0 | 0.00 | 0.00 | 0.00 | 69 | 1015.3 |
| 20260831031816 | 86 | 136 | 11.0 | 12.0 | 0.00 | 0.00 | 0.00 | 69 | 1015.2 |
| 20260831031314 | 87 | 141 | 9.0 | 14.0 | 0.00 | 0.00 | 0.00 | 68 | 1015.0 |
| 20260831030809 | 87 | 148 | 12.0 | 16.0 | 0.00 | 0.00 | 0.00 | 68 | 1015.0 |
| 20260831030307 | 87 | 121 | 10.0 | 13.0 | 0.00 | 0.00 | 0.00 | 68 | 1015.0 |
| 20260831025802 | 87 | 142 | 10.0 | 16.0 | 0.00 | 0.00 | 0.00 | 67 | 1014.8 |
| 20260831025256 | 87 | 134 | 5.0 | 10.0 | 0.00 | 0.00 | 0.00 | 67 | 1014.7 |
| 20260831024752 | 87 | 130 | 8.0 | 13.0 | 0.00 | 0.00 | 0.00 | 67 | 1014.7 |
| 20260831024251 | 87 | 140 | 12.0 | 16.0 | 0.00 | 0.00 | 0.00 | 66 | 1014.7 |
| 20260831023750 | 88 | 146 | 7.0 | 15.0 | 0.00 | 0.00 | 0.00 | 65 | 1014.4 |
| 20260831023249 | 88 | 149 | 9.0 | 12.0 | 0.00 | 0.00 | 0.00 | 64 | 1014.4 |
| 20260831022744 | 88 | 146 | 11.0 | 15.0 | 0.00 | 0.00 | 0.00 | 64 | 1014.2 |
| 20260831022243 | 88 | 143 | 9.0 | 17.0 | 0.00 | 0.00 | 0.00 | 63 | 1014.4 |
| 20260831021739 | 88 | 132 | 9.0 | 17.0 | 0.00 | 0.00 | 0.00 | 62 | 1014.3 |
| 20260831021238 | 89 | 127 | 11.0 | 16.0 | 0.00 | 0.00 | 0.00 | 62 | 1014.0 |
| 20260831020735 | 89 | 161 | 8.0 | 16.0 | 0.00 | 0.00 | 0.00 | 62 | 1014.0 |
| 20260831020233 | 89 | 130 | 13.0 | 20.0 | 0.00 | 0.00 | 0.00 | 61 | 1014.0 |
| 20260831015729 | 89 | 156 | 9.0 | 18.0 | 0.00 | 0.00 | 0.00 | 61 | 1013.9 |
| 20260831015225 | 90 | 145 | 8.0 | 15.0 | 0.00 | 0.00 | 0.00 | 60 | 1014.0 |
| 20260831014720 | 90 | 148 | 6.0 | 15.0 | 0.00 | 0.00 | 0.00 | 60 | 1013.8 |
| 20260831014215 | 90 | 147 | 7.0 | 10.0 | 0.00 | 0.00 | 0.00 | 59 | 1013.9 |
| 20260831013711 | 90 | 144 | 8.0 | 13.0 | 0.00 | 0.00 | 0.00 | 59 | 1013.8 |
| 20260831013210 | 90 | 140 | 10.0 | 19.0 | 0.00 | 0.00 | 0.00 | 59 | 1013.8 |
| 20260831012705 | 91 | 136 | 13.0 | 22.0 | 0.00 | 0.00 | 0.00 | 58 | 1013.7 |
| 20260831012201 | 91 | 136 | 11.0 | 19.0 | 0.00 | 0.00 | 0.00 | 58 | 1013.7 |
| 20260831011659 | 91 | 148 | 8.0 | 14.0 | 0.00 | 0.00 | 0.00 | 58 | 1013.8 |
| 20260831011150 | 91 | 137 | 11.0 | 17.0 | 0.00 | 0.00 | 0.00 | 58 | 1013.5 |
| 20260831010645 | 91 | 135 | 13.0 | 18.0 | 0.00 | 0.00 | 0.00 | 57 | 1013.6 |
| 20260831010140 | 92 | 133 | 18.0 | 23.0 | 0.00 | 0.00 | 0.00 | 56 | 1013.5 |
| 20260831005634 | 92 | 113 | 12.0 | 17.0 | 0.00 | 0.00 | 0.00 | 56 | 1013.4 |
| 20260831005130 | 93 | 157 | 10.0 | 16.0 | 0.00 | 0.00 | 0.00 | 55 | 1013.4 |
| 20260831004625 | 93 | 155 | 11.0 | 18.0 | 0.00 | 0.00 | 0.00 | 54 | 1013.1 |
| 20260831004121 | 93 | 141 | 11.0 | 18.0 | 0.00 | 0.00 | 0.00 | 54 | 1013.1 |
| 20260831003617 | 93 | 126 | 12.0 | 15.0 | 0.00 | 0.00 | 0.00 | 53 | 1012.9 |
| 20260831003113 | 94 | 138 | 11.0 | 16.0 | 0.00 | 0.00 | 0.00 | 53 | 1012.8 |
| 20260831002611 | 94 | 143 | 9.0 | 18.0 | 0.00 | 0.00 | 0.00 | 52 | 1012.7 |
| 20260831002107 | 94 | 148 | 12.0 | 16.0 | 0.00 | 0.00 | 0.00 | 52 | 1012.8 |
| 20260831001602 | 94 | 146 | 10.0 | 16.0 | 0.00 | 0.00 | 0.00 | 51 | 1012.7 |
| 20260831001058 | 95 | 154 | 11.0 | 18.0 | 0.00 | 0.00 | 0.00 | 50 | 1012.5 |
| 20260831000554 | 95 | 155 | 11.0 | 13.0 | 0.00 | 0.00 | 0.00 | 49 | 1012.5 |
| 20260831000054 | 95 | 174 | 6.0 | 17.0 | 0.00 | 0.00 | 0.00 | 49 | 1012.4 |
| 20260830235553 | 96 | 144 | 11.0 | 18.0 | 0.00 | 0.00 | 0.00 | 48 | 1012.7 |
| 20260830235048 | 96 | 160 | 7.0 | 12.0 | 0.00 | 0.00 | 0.00 | 48 | 1012.5 |
| 20260830234543 | 96 | 156 | 14.0 | 17.0 | 0.00 | 0.00 | 0.00 | 47 | 1012.2 |
| 20260830234038 | 97 | 144 | 12.0 | 20.0 | 0.00 | 0.00 | 0.00 | 46 | 1012.3 |
| 20260830233533 | 97 | 178 | 7.0 | 14.0 | 0.00 | 0.00 | 0.00 | 46 | 1012.3 |
| 20260830233029 | 97 | 152 | 7.0 | 15.0 | 0.00 | 0.00 | 0.00 | 45 | 1012.3 |
| 20260830232525 | 97 | 168 | 9.0 | 19.0 | 0.00 | 0.00 | 0.00 | 46 | 1012.3 |
| 20260830232021 | 97 | 152 | 6.0 | 16.0 | 0.00 | 0.00 | 0.00 | 45 | 1012.3 |
| 20260830231517 | 98 | 155 | 9.0 | 24.0 | 0.00 | 0.00 | 0.00 | 44 | 1012.3 |
| 20260830231016 | 99 | 181 | 6.0 | 14.0 | 0.00 | 0.00 | 0.00 | 43 | 1012.3 |
| 20260830230511 | 99 | 190 | 10.0 | 16.0 | 0.00 | 0.00 | 0.00 | 42 | 1012.3 |
| 20260830230011 | 100 | 159 | 5.0 | 15.0 | 0.00 | 0.00 | 0.00 | 41 | 1012.1 |
| 20260830225507 | 100 | 151 | 9.0 | 11.0 | 0.00 | 0.00 | 0.00 | 41 | 1012.2 |
| 20260830225006 | 100 | 173 | 5.0 | 10.0 | 0.00 | 0.00 | 0.00 | 40 | 1012.3 |
| 20260830224504 | 100 | 131 | 15.0 | 15.0 | 0.00 | 0.00 | 0.00 | 43 | 1012.1 |
| 20260830224001 | 99 | 142 | 8.0 | 13.0 | 0.00 | 0.00 | 0.00 | 46 | 1012.0 |
| 20260830223458 | 99 | 143 | 11.0 | 19.0 | 0.00 | 0.00 | 0.00 | 45 | 1012.1 |
| 20260830222957 | 100 | 140 | 7.0 | 12.0 | 0.00 | 0.00 | 0.00 | 44 | 1012.0 |